Nearby METAR Reports


Data Updates Approximately Every Four Hours

METAR is the international standard code format for hourly surface weather observations which is analogous to the SA coding currently used in the US. The acronym roughly translates from French as Aviation Routine Weather Report. SPECI is merely the code name given to METAR formatted products which are issued on a special non-routine basis as dictated by changing meteorological conditions. The SPECI acronym roughly translates as Aviation Selected Special Weather Report.

KSLH - Cheboygan, Michigan, USA
Distance from station: W 9mi, 14km
Updated: 03/29/2020 6:15pm
Light rain, Overcast
Light rain, Overcast
 Wind from WSW
Wind: WSW 5 mph , 7 km/h
Temperature: 45°F , 7°C
Wind Chill: 42°F , 6°C
Dew Point: 43°F , 6°C
Humidity: 93%
Barometer: 29.50 inHg , 999 hPa
Summary: Light rain
Clouds: Overcast
Visibility: 10 miles , 16 km
Cloud details: Partly cloudy 3400 ft
Overcast 4000 ft
2020/03/29 22:15 KSLH 292215Z AUTO 25004KT 10SM -RA SCT034 OVC040 07/06 A2950 RMK AO2 T00690055
KMCD - Mackinac Island, Michigan, USA
Distance from station: NW 19mi, 31km
Updated: 03/29/2020 6:15pm
Overcast
Overcast
 Wind from W
Wind: W 6 mph , 9 km/h
Temperature: 39°F , 4°C
Wind Chill: 35°F , 2°C
Dew Point: 39°F , 4°C
Humidity: 100%
Barometer: 29.50 inHg , 999 hPa
Clouds: Overcast
Visibility: 10 miles , 16 km
Cloud details: Overcast 400 ft
2020/03/29 22:15 KMCD 292215Z AUTO 27005KT 10SM OVC004 04/04 A2950 RMK AO2 T00420042
 
KPLN - Pellston, Michigan, USA
Distance from station: WSW 24mi, 38km
Updated: 03/29/2020 5:54pm
Light rain, Overcast
Light rain, Overcast
 Wind from SW
Wind: SW 10 mph , 17 km/h
Temperature: 45°F , 7°C
Wind Chill: 40°F , 4°C
Dew Point: 41°F , 5°C
Humidity: 87%
Barometer: 29.50 inHg , 999 hPa
Summary: Light rain
Clouds: Overcast
Visibility: 10 miles , 16 km
Cloud details: Mostly cloudy 1500 ft
Overcast 2000 ft
2020/03/29 21:54 KPLN 292154Z AUTO 23009KT 10SM -RA BKN015 OVC020 07/05 A2950 RMK AO2 SLP994 P0001 T00720050
KPZQ - Rogers City, Michigan, USA
Distance from station: SE 31mi, 50km
Updated: 03/29/2020 6:16pm
Rain, Overcast
Rain, Overcast
 Wind from SW
Wind: SW 9 mph , 15 km/h
Temperature: 45°F , 7°C
Wind Chill: 40°F , 4°C
Dew Point: 43°F , 6°C
Humidity: 93%
Barometer: 29.52 inHg , 999.7 hPa
Summary: Rain
Clouds: Overcast
Visibility: 10 miles , 16 km
Cloud details: Partly cloudy 2100 ft
Mostly cloudy 2700 ft
Overcast 5000 ft
2020/03/29 22:16 KPZQ 292216Z AUTO 23008KT 10SM RA SCT021 BKN027 OVC050 07/06 A2952 RMK AO2 T00700059
 
KMGN - Harbor Springs, Michigan, USA
Distance from station: WSW 32mi, 52km
Updated: 03/29/2020 6:15pm
Drizzle, Overcast
Drizzle, Overcast
 Wind from WSW
Wind: WSW 6 mph , 9 km/h
Temperature: 41°F , 5°C
Wind Chill: 37°F , 3°C
Dew Point: 41°F , 5°C
Humidity: 100%
Barometer: 29.51 inHg , 999.3 hPa
Summary: Drizzle
Clouds: Overcast
Visibility: 10 miles , 16 km
Cloud details: Partly cloudy 1800 ft
Mostly cloudy 2200 ft
Overcast 3600 ft
2020/03/29 22:15 KMGN 292215Z AUTO 25005KT 10SM DZ SCT018 BKN022 OVC036 05/05 A2951 RMK AO2 T00520051
KDRM - Drummond Is, Michigan, USA
Distance from station: NE 36mi, 59km
Updated: 03/29/2020 6:15pm
Light rain, Overcast
Light rain, Overcast
 Wind from calm
Wind: Calm
Temperature: 39°F , 4°C
Dew Point: 39°F , 4°C
Humidity: 100%
Barometer: 29.50 inHg , 999 hPa
Summary: Light rain
Clouds: Overcast
Visibility: 7 miles , 11 km
Cloud details: Mostly cloudy 200 ft
Mostly cloudy 1700 ft
Overcast 4200 ft
2020/03/29 22:15 KDRM 292215Z AUTO 00000KT 7SM -RA BKN002 BKN017 OVC042 04/04 A2950 RMK AO2 P0001 T00410041
 
KCIU - Chippewa Intl, Michigan, USA
Distance from station: N 41mi, 66km
Updated: 03/29/2020 6:08pm
Light rain, Fog, Overcast
Light rain, Fog, Overcast
 Wind from SSE
Wind: SSE 3 mph , 6 km/h
Temperature: 37°F , 3°C
Dew Point: 37°F , 3°C
Humidity: 100%
Barometer: 29.50 inHg , 999 hPa
Summary: Light rain, Fog
Clouds: Overcast
Visibility: 1/2 mile , 0.8 km
Cloud details: Mostly cloudy 200 ft
Overcast 1900 ft
2020/03/29 22:08 KCIU 292208Z AUTO 16003KT 1/2SM -RA FG BKN002 OVC019 03/03 A2950 RMK AO2 P0000
KGLR - Gaylord, Michigan, USA
Distance from station: SSW 48mi, 77km
Updated: 03/29/2020 6:02pm
Light rain, Mist, Overcast
Light rain, Mist, Overcast
 Wind from SW
Wind: SW 9 mph , 15 km/h
Temperature: 41°F , 5°C
Wind Chill: 35°F , 2°C
Dew Point: 39°F , 4°C
Humidity: 93%
Barometer: 29.50 inHg , 999 hPa
Summary: Light rain, Mist
Clouds: Overcast
Visibility: 5 miles , 8 km
Cloud details: Mostly cloudy 1200 ft
Mostly cloudy 1700 ft
Overcast 5000 ft
2020/03/29 22:02 KGLR 292202Z AUTO 23008KT 5SM -RA BR BKN012 BKN017 OVC050 05/04 A2950 RMK AO2 P0001 T00500039
 
KCVX - Charlevoix, Michigan, USA
Distance from station: WSW 52mi, 83km
Updated: 03/29/2020 6:15pm
Overcast
Overcast
 Wind from SSW
Wind: SSW 8 mph , 13 km/h
Temperature: 45°F , 7°C
Wind Chill: 41°F , 5°C
Dew Point: 39°F , 4°C
Humidity: 81%
Barometer: 29.51 inHg , 999.3 hPa
Clouds: Overcast
Visibility: 10 miles , 16 km
Cloud details: Partly cloudy 1300 ft
Mostly cloudy 2100 ft
Overcast 4100 ft
2020/03/29 22:15 KCVX 292215Z AUTO 20007KT 10SM SCT013 BKN021 OVC041 07/04 A2951 RMK AO2 T00650044
KANJ - Sault Ste Marie, Michigan, USA
Distance from station: N 56mi, 89km
Updated: 03/29/2020 6:20pm
Light rain, Fog, Overcast
Light rain, Fog, Overcast
 Wind from calm
Wind: Calm
Temperature: 39°F , 4°C
Dew Point: 39°F , 4°C
Humidity: 100%
Barometer: 29.51 inHg , 999.3 hPa
Summary: Light rain, Fog
Clouds: Overcast
Visibility: 1/2 mile , 0.8 km
Cloud details: Overcast 700 ft
2020/03/29 22:20 KANJ 292220Z AUTO 00000KT 1/2SM -RA FG VV007 04/04 A2951 RMK AO2 P0001 T00440039
 
KAPN - Alpena, Michigan, USA
Distance from station: SE 56mi, 89km
Updated: 03/29/2020 5:54pm
Light rain, Overcast
Light rain, Overcast
 Wind from WSW
Wind: WSW 12 mph , 19 km/h, Gust: 25 mph , 41 km/h
Temperature: 46°F , 8°C
Wind Chill: 40°F , 4°C
Dew Point: 39°F , 4°C
Humidity: 76%
Barometer: 29.51 inHg , 999.3 hPa
Summary: Light rain
Clouds: Overcast
Visibility: 10 miles , 16 km
Cloud details: Partly cloudy 2400 ft
Overcast 3200 ft
2020/03/29 21:54 KAPN 292154Z AUTO 24010G22KT 10SM -RA SCT024 OVC032 08/04 A2951 RMK AO2 SLP998 P0000 T00830044
CYAM - Sault Ste Marie, Ontario, Canada
Distance from station: N 56mi, 90km
Updated: 03/29/2020 6:00pm
Light rain, Showers, Mist, Overcast
Light rain, Showers, Mist, Overcast
 Wind from calm
Wind: Calm
Temperature: 39°F , 4°C
Dew Point: 37°F , 3°C
Humidity: 93%
Barometer: 29.50 inHg , 999 hPa
Summary: Light rain, Showers, Mist
Clouds: Overcast
Visibility: 2 miles , 3 km
Cloud details: Mostly cloudy 600 ft
Overcast 1200 ft
2020/03/29 22:00 CYAM 292200Z 00000KT 2SM -SHRA BR BKN006 OVC012 04/03 A2950 RMK CU7CU1 CIG VRB 4-8 SLP999
 
KSJX - Beaver Island, Michigan, USA
Distance from station: W 60mi, 96km
Updated: 03/29/2020 6:16pm
Light rain, Overcast
Light rain, Overcast
 Wind from S
Wind: S 8 mph , 13 km/h, Gust: 16 mph , 26 km/h
Temperature: 41°F , 5°C
Wind Chill: 36°F , 2°C
Dew Point: 39°F , 4°C
Humidity: 93%
Barometer: 29.50 inHg , 999 hPa
Summary: Light rain
Clouds: Overcast
Visibility: 10 miles , 16 km
Cloud details: Overcast 600 ft
2020/03/29 22:16 KSJX 292216Z AUTO 18007G14KT 10SM -RA OVC006 05/04 A2950 RMK AO2 T00480041
KACB - Bellaire, Michigan, USA
Distance from station: SW 63mi, 102km
Updated: 03/29/2020 6:16pm
Light rain, Overcast
Light rain, Overcast
 Wind from SSW
Wind: SSW 5 mph , 7 km/h
Temperature: 45°F , 7°C
Wind Chill: 42°F , 6°C
Dew Point: 41°F , 5°C
Humidity: 87%
Barometer: 29.52 inHg , 999.7 hPa
Summary: Light rain
Clouds: Overcast
Visibility: 7 miles , 11 km
Cloud details: Overcast 2100 ft
2020/03/29 22:16 KACB 292216Z AUTO 21004KT 7SM -RA OVC021 07/05 A2952 RMK AO2 T00660046
 
CWNL - Great Duck Island, Ontario, Canada
Distance from station: E 66mi, 106km
Updated: 03/29/2020 5:00pm
NOT Current

 Wind from ESE
Wind: ESE 3 mph , 6 km/h
Temperature: 39°F , 4°C
Dew Point: 37°F , 3°C
Humidity: 93%
2020/03/29 21:00 CWNL 292100Z AUTO 12003KT 04/03 RMK AO1 SLP982 T00380032 53010
KERY - Newberry, Michigan, USA
Distance from station: NW 69mi, 112km
Updated: 03/29/2020 6:15pm
Mist, Overcast
Mist, Overcast
 Wind from SSW
Wind: SSW 6 mph , 9 km/h
Temperature: 39°F , 4°C
Wind Chill: 35°F , 2°C
Dew Point: 37°F , 3°C
Humidity: 93%
Barometer: 29.49 inHg , 998.6 hPa
Summary: Mist
Clouds: Overcast
Visibility: 3 miles , 5 km
Cloud details: Overcast 400 ft
2020/03/29 22:15 KERY 292215Z AUTO 21005KT 3SM BR OVC004 04/03 A2949 RMK AO2 T00360025
 
KGOV - Grayling Af, Michigan, USA
Distance from station: SSW 70mi, 113km
Updated: 03/29/2020 6:23pm
Light rain, Mist, Overcast
Light rain, Mist, Overcast
 Wind from SW
Wind: SW 8 mph , 13 km/h
Temperature: 41°F , 5°C
Wind Chill: 36°F , 2°C
Dew Point: 39°F , 4°C
Humidity: 93%
Barometer: 29.52 inHg , 999.7 hPa
Summary: Light rain, Mist
Clouds: Overcast
Visibility: 6 miles , 10 km
Cloud details: Mostly cloudy 1600 ft
Overcast 3400 ft
2020/03/29 22:23 KGOV 292223Z AUTO 22007KT 6SM -RA BR BKN016 OVC034 05/04 A2952 RMK AO2 CIG 016V034 BKN V SCT SLP009 $